sensor_id;sensor_type;location;lat;lon;timestamp;pressure;altitude;pressure_sealevel;temperature;humidity
43480;BME280;29067;35.492;-97.520;2023-07-24T00:00:36;97210.54;;;33.53;30.73
43480;BME280;29067;35.492;-97.520;2023-07-24T00:03:04;97209.92;;;32.75;31.80
43480;BME280;29067;35.492;-97.520;2023-07-24T00:05:32;97212.95;;;34.30;30.69
43480;BME280;29067;35.492;-97.520;2023-07-24T00:08:01;97219.20;;;32.68;33.09
43480;BME280;29067;35.492;-97.520;2023-07-24T00:10:29;97222.06;;;32.65;31.59
43480;BME280;29067;35.492;-97.520;2023-07-24T00:12:57;97223.38;;;33.06;31.07
43480;BME280;29067;35.492;-97.520;2023-07-24T00:15:26;97224.81;;;33.53;31.29
43480;BME280;29067;35.492;-97.520;2023-07-24T00:17:54;97224.30;;;32.92;31.66
43480;BME280;29067;35.492;-97.520;2023-07-24T00:20:22;97227.42;;;30.62;33.13
43480;BME280;29067;35.492;-97.520;2023-07-24T00:22:50;97227.14;;;32.64;32.60
43480;BME280;29067;35.492;-97.520;2023-07-24T00:25:18;97232.02;;;31.94;32.55
43480;BME280;29067;35.492;-97.520;2023-07-24T00:27:47;97231.80;;;31.82;32.62
43480;BME280;29067;35.492;-97.520;2023-07-24T00:30:15;97232.17;;;32.22;32.36
43480;BME280;29067;35.492;-97.520;2023-07-24T00:32:48;97234.00;;;30.79;33.34
43480;BME280;29067;35.492;-97.520;2023-07-24T00:35:16;97229.46;;;32.58;32.31
43480;BME280;29067;35.492;-97.520;2023-07-24T00:37:45;97232.30;;;32.28;32.13
43480;BME280;29067;35.492;-97.520;2023-07-24T00:40:13;97231.75;;;32.70;32.20
43480;BME280;29067;35.492;-97.520;2023-07-24T00:42:45;97237.36;;;31.61;32.67
43480;BME280;29067;35.492;-97.520;2023-07-24T00:45:14;97238.87;;;31.60;32.57
43480;BME280;29067;35.492;-97.520;2023-07-24T00:47:43;97239.17;;;32.35;31.43
43480;BME280;29067;35.492;-97.520;2023-07-24T00:50:12;97236.35;;;32.26;31.76
43480;BME280;29067;35.492;-97.520;2023-07-24T00:52:40;97234.95;;;31.88;32.12
43480;BME280;29067;35.492;-97.520;2023-07-24T00:55:10;97236.55;;;32.43;31.89
43480;BME280;29067;35.492;-97.520;2023-07-24T00:57:38;97237.92;;;32.28;32.21
43480;BME280;29067;35.492;-97.520;2023-07-24T01:00:07;97235.21;;;33.00;31.80
43480;BME280;29067;35.492;-97.520;2023-07-24T01:02:35;97239.51;;;32.84;31.31
43480;BME280;29067;35.492;-97.520;2023-07-24T01:05:04;97245.68;;;32.39;30.95
43480;BME280;29067;35.492;-97.520;2023-07-24T01:07:33;97245.78;;;31.44;31.80
43480;BME280;29067;35.492;-97.520;2023-07-24T01:10:02;97247.62;;;32.18;31.66
43480;BME280;29067;35.492;-97.520;2023-07-24T01:12:35;97248.52;;;32.10;31.30
43480;BME280;29067;35.492;-97.520;2023-07-24T01:15:08;97244.67;;;33.01;31.37
43480;BME280;29067;35.492;-97.520;2023-07-24T01:17:42;97250.71;;;32.89;31.38
43480;BME280;29067;35.492;-97.520;2023-07-24T01:20:14;97254.57;;;31.74;32.90
43480;BME280;29067;35.492;-97.520;2023-07-24T01:22:55;97252.90;;;31.90;33.56
43480;BME280;29067;35.492;-97.520;2023-07-24T01:25:32;97252.55;;;31.90;34.25
43480;BME280;29067;35.492;-97.520;2023-07-24T01:28:00;97255.95;;;31.52;35.21
43480;BME280;29067;35.492;-97.520;2023-07-24T01:30:29;97255.33;;;30.53;37.08
43480;BME280;29067;35.492;-97.520;2023-07-24T01:32:57;97258.65;;;30.70;37.09
43480;BME280;29067;35.492;-97.520;2023-07-24T01:35:27;97257.47;;;31.00;36.92
43480;BME280;29067;35.492;-97.520;2023-07-24T01:37:57;97255.54;;;30.08;38.40
43480;BME280;29067;35.492;-97.520;2023-07-24T01:40:26;97256.90;;;31.41;37.62
43480;BME280;29067;35.492;-97.520;2023-07-24T01:42:54;97252.21;;;30.77;38.50
43480;BME280;29067;35.492;-97.520;2023-07-24T01:45:23;97251.18;;;29.16;39.97
43480;BME280;29067;35.492;-97.520;2023-07-24T01:47:51;97250.95;;;31.11;38.70
43480;BME280;29067;35.492;-97.520;2023-07-24T01:50:19;97249.78;;;30.94;38.92
43480;BME280;29067;35.492;-97.520;2023-07-24T01:52:48;97248.02;;;30.39;38.68
43480;BME280;29067;35.492;-97.520;2023-07-24T01:55:16;97251.89;;;29.89;39.81
43480;BME280;29067;35.492;-97.520;2023-07-24T01:57:46;97249.19;;;29.73;39.53
43480;BME280;29067;35.492;-97.520;2023-07-24T02:00:15;97252.26;;;29.70;40.33
43480;BME280;29067;35.492;-97.520;2023-07-24T02:02:43;97253.19;;;30.73;39.50
43480;BME280;29067;35.492;-97.520;2023-07-24T02:05:13;97256.19;;;28.68;40.54
43480;BME280;29067;35.492;-97.520;2023-07-24T02:07:44;97259.06;;;29.12;41.01
43480;BME280;29067;35.492;-97.520;2023-07-24T02:10:12;97264.28;;;28.76;40.96
43480;BME280;29067;35.492;-97.520;2023-07-24T02:12:41;97264.47;;;28.73;41.33
43480;BME280;29067;35.492;-97.520;2023-07-24T02:15:09;97268.12;;;27.78;41.92
43480;BME280;29067;35.492;-97.520;2023-07-24T02:17:40;97270.05;;;27.94;42.32
43480;BME280;29067;35.492;-97.520;2023-07-24T02:20:10;97271.62;;;29.05;41.67
43480;BME280;29067;35.492;-97.520;2023-07-24T02:22:40;97273.74;;;29.40;41.67
43480;BME280;29067;35.492;-97.520;2023-07-24T02:25:10;97277.46;;;29.74;40.19
43480;BME280;29067;35.492;-97.520;2023-07-24T02:27:39;97277.60;;;29.20;40.38
43480;BME280;29067;35.492;-97.520;2023-07-24T02:30:07;97276.70;;;29.25;40.07
43480;BME280;29067;35.492;-97.520;2023-07-24T02:32:36;97277.68;;;30.25;39.03
43480;BME280;29067;35.492;-97.520;2023-07-24T02:35:06;97282.41;;;29.36;39.48
43480;BME280;29067;35.492;-97.520;2023-07-24T02:37:35;97290.35;;;29.60;39.24
43480;BME280;29067;35.492;-97.520;2023-07-24T02:40:05;97292.63;;;28.91;39.82
43480;BME280;29067;35.492;-97.520;2023-07-24T02:42:34;97294.62;;;29.90;39.59
43480;BME280;29067;35.492;-97.520;2023-07-24T02:45:02;97299.02;;;29.57;39.14
43480;BME280;29067;35.492;-97.520;2023-07-24T02:47:30;97305.23;;;27.62;40.87
43480;BME280;29067;35.492;-97.520;2023-07-24T02:49:58;97311.67;;;27.65;41.62
43480;BME280;29067;35.492;-97.520;2023-07-24T02:52:26;97308.01;;;28.67;40.49
43480;BME280;29067;35.492;-97.520;2023-07-24T02:54:54;97313.77;;;27.68;41.59
43480;BME280;29067;35.492;-97.520;2023-07-24T02:57:23;97313.39;;;28.74;40.60
43480;BME280;29067;35.492;-97.520;2023-07-24T02:59:51;97317.30;;;28.15;40.60
43480;BME280;29067;35.492;-97.520;2023-07-24T03:02:19;97326.42;;;27.59;41.65
43480;BME280;29067;35.492;-97.520;2023-07-24T03:04:47;97325.04;;;27.56;40.98
43480;BME280;29067;35.492;-97.520;2023-07-24T03:07:16;97326.43;;;28.03;40.95
43480;BME280;29067;35.492;-97.520;2023-07-24T03:09:44;97328.33;;;28.66;40.31
43480;BME280;29067;35.492;-97.520;2023-07-24T03:12:13;97340.33;;;26.93;41.99
43480;BME280;29067;35.492;-97.520;2023-07-24T03:14:41;97339.25;;;27.77;41.19
43480;BME280;29067;35.492;-97.520;2023-07-24T03:17:09;97340.20;;;27.74;41.67
43480;BME280;29067;35.492;-97.520;2023-07-24T03:19:38;97345.57;;;27.96;41.62
43480;BME280;29067;35.492;-97.520;2023-07-24T03:22:05;97346.04;;;27.04;41.50
43480;BME280;29067;35.492;-97.520;2023-07-24T03:24:34;97348.05;;;27.53;42.33
43480;BME280;29067;35.492;-97.520;2023-07-24T03:27:02;97351.74;;;27.64;42.14
43480;BME280;29067;35.492;-97.520;2023-07-24T03:29:30;97348.80;;;29.21;40.49
43480;BME280;29067;35.492;-97.520;2023-07-24T03:31:59;97359.59;;;28.28;41.26
43480;BME280;29067;35.492;-97.520;2023-07-24T03:34:27;97357.94;;;28.58;40.75
43480;BME280;29067;35.492;-97.520;2023-07-24T03:36:55;97359.65;;;27.86;41.09
43480;BME280;29067;35.492;-97.520;2023-07-24T03:39:23;97361.57;;;27.85;40.43
43480;BME280;29067;35.492;-97.520;2023-07-24T03:41:51;97360.22;;;27.59;41.16
43480;BME280;29067;35.492;-97.520;2023-07-24T03:44:19;97358.76;;;28.01;40.82
43480;BME280;29067;35.492;-97.520;2023-07-24T03:46:48;97362.23;;;28.74;40.33
43480;BME280;29067;35.492;-97.520;2023-07-24T03:49:16;97363.05;;;26.94;41.12
43480;BME280;29067;35.492;-97.520;2023-07-24T03:51:44;97366.61;;;26.95;41.54
43480;BME280;29067;35.492;-97.520;2023-07-24T03:54:12;97361.77;;;28.68;39.94
43480;BME280;29067;35.492;-97.520;2023-07-24T03:56:41;97360.88;;;27.74;40.48
43480;BME280;29067;35.492;-97.520;2023-07-24T03:59:09;97359.65;;;27.99;40.52
43480;BME280;29067;35.492;-97.520;2023-07-24T04:01:37;97361.06;;;27.01;40.89
43480;BME280;29067;35.492;-97.520;2023-07-24T04:04:06;97357.08;;;27.99;40.45
43480;BME280;29067;35.492;-97.520;2023-07-24T04:06:34;97361.17;;;26.87;41.09
43480;BME280;29067;35.492;-97.520;2023-07-24T04:09:02;97361.06;;;27.94;39.88
43480;BME280;29067;35.492;-97.520;2023-07-24T04:11:30;97363.16;;;27.49;40.32
43480;BME280;29067;35.492;-97.520;2023-07-24T04:13:59;97361.35;;;27.68;39.66
43480;BME280;29067;35.492;-97.520;2023-07-24T04:16:27;97369.41;;;26.29;40.94
43480;BME280;29067;35.492;-97.520;2023-07-24T04:18:55;97371.47;;;26.66;40.09
43480;BME280;29067;35.492;-97.520;2023-07-24T04:21:24;97374.65;;;27.04;39.78
43480;BME280;29067;35.492;-97.520;2023-07-24T04:23:52;97376.77;;;27.79;39.16
43480;BME280;29067;35.492;-97.520;2023-07-24T04:26:20;97377.79;;;26.48;40.00
43480;BME280;29067;35.492;-97.520;2023-07-24T04:28:48;97384.57;;;26.84;40.05
43480;BME280;29067;35.492;-97.520;2023-07-24T04:31:16;97384.41;;;25.86;42.37
43480;BME280;29067;35.492;-97.520;2023-07-24T04:33:45;97387.30;;;26.63;41.72
43480;BME280;29067;35.492;-97.520;2023-07-24T04:36:13;97393.65;;;27.21;41.03
43480;BME280;29067;35.492;-97.520;2023-07-24T04:38:41;97393.74;;;28.21;40.60
43480;BME280;29067;35.492;-97.520;2023-07-24T04:41:09;97394.25;;;26.86;41.46
43480;BME280;29067;35.492;-97.520;2023-07-24T04:43:38;97398.18;;;27.45;40.71
43480;BME280;29067;35.492;-97.520;2023-07-24T04:46:06;97397.05;;;27.69;40.11
43480;BME280;29067;35.492;-97.520;2023-07-24T04:48:34;97396.79;;;27.82;39.75
43480;BME280;29067;35.492;-97.520;2023-07-24T04:51:03;97395.76;;;25.79;40.89
43480;BME280;29067;35.492;-97.520;2023-07-24T04:53:31;97395.58;;;27.31;39.91
43480;BME280;29067;35.492;-97.520;2023-07-24T04:55:59;97392.76;;;27.64;39.10
43480;BME280;29067;35.492;-97.520;2023-07-24T04:58:28;97388.63;;;26.16;40.39
43480;BME280;29067;35.492;-97.520;2023-07-24T05:00:56;97390.00;;;25.67;40.56
43480;BME280;29067;35.492;-97.520;2023-07-24T05:03:24;97399.37;;;27.28;39.47
43480;BME280;29067;35.492;-97.520;2023-07-24T05:05:55;97400.61;;;27.53;39.61
43480;BME280;29067;35.492;-97.520;2023-07-24T05:08:23;97399.39;;;26.20;40.72
43480;BME280;29067;35.492;-97.520;2023-07-24T05:10:54;97407.50;;;27.12;38.52
43480;BME280;29067;35.492;-97.520;2023-07-24T05:13:23;97405.88;;;26.18;39.93
43480;BME280;29067;35.492;-97.520;2023-07-24T05:15:51;97406.44;;;26.89;39.05
43480;BME280;29067;35.492;-97.520;2023-07-24T05:18:19;97410.39;;;28.40;37.44
43480;BME280;29067;35.492;-97.520;2023-07-24T05:20:53;97411.28;;;26.98;38.44
43480;BME280;29067;35.492;-97.520;2023-07-24T05:23:26;97415.81;;;28.55;37.05
43480;BME280;29067;35.492;-97.520;2023-07-24T05:25:58;97415.19;;;26.54;38.46
43480;BME280;29067;35.492;-97.520;2023-07-24T05:28:26;97414.20;;;26.47;38.19
43480;BME280;29067;35.492;-97.520;2023-07-24T05:30:54;97414.93;;;26.67;38.77
43480;BME280;29067;35.492;-97.520;2023-07-24T05:33:22;97417.38;;;27.10;37.65
43480;BME280;29067;35.492;-97.520;2023-07-24T05:35:51;97415.01;;;25.81;38.67
43480;BME280;29067;35.492;-97.520;2023-07-24T05:38:19;97416.29;;;26.31;39.04
43480;BME280;29067;35.492;-97.520;2023-07-24T05:40:54;97422.06;;;28.00;37.49
43480;BME280;29067;35.492;-97.520;2023-07-24T05:43:22;97420.41;;;26.87;38.33
43480;BME280;29067;35.492;-97.520;2023-07-24T05:45:51;97418.94;;;27.52;38.23
43480;BME280;29067;35.492;-97.520;2023-07-24T05:48:19;97418.08;;;26.85;38.03
43480;BME280;29067;35.492;-97.520;2023-07-24T05:50:47;97421.30;;;26.64;38.57
43480;BME280;29067;35.492;-97.520;2023-07-24T05:53:16;97426.82;;;27.16;39.05
43480;BME280;29067;35.492;-97.520;2023-07-24T05:55:43;97434.38;;;26.10;40.32
43480;BME280;29067;35.492;-97.520;2023-07-24T05:58:12;97432.75;;;27.15;39.55
43480;BME280;29067;35.492;-97.520;2023-07-24T06:00:40;97434.74;;;26.92;39.99
43480;BME280;29067;35.492;-97.520;2023-07-24T06:03:09;97431.16;;;27.04;39.37
43480;BME280;29067;35.492;-97.520;2023-07-24T06:05:37;97432.68;;;26.36;39.93
43480;BME280;29067;35.492;-97.520;2023-07-24T06:08:05;97427.99;;;26.76;40.42
43480;BME280;29067;35.492;-97.520;2023-07-24T06:10:34;97425.98;;;25.35;41.57
43480;BME280;29067;35.492;-97.520;2023-07-24T06:13:02;97428.49;;;24.78;42.51
43480;BME280;29067;35.492;-97.520;2023-07-24T06:15:30;97429.21;;;25.17;42.18
43480;BME280;29067;35.492;-97.520;2023-07-24T06:17:58;97428.19;;;26.82;40.60
43480;BME280;29067;35.492;-97.520;2023-07-24T06:20:27;97424.73;;;26.84;40.62
43480;BME280;29067;35.492;-97.520;2023-07-24T06:22:55;97422.27;;;26.03;41.35
43480;BME280;29067;35.492;-97.520;2023-07-24T06:25:26;97424.48;;;25.31;42.76
43480;BME280;29067;35.492;-97.520;2023-07-24T06:27:53;97428.65;;;25.76;42.72
43480;BME280;29067;35.492;-97.520;2023-07-24T06:30:21;97422.32;;;25.98;42.10
43480;BME280;29067;35.492;-97.520;2023-07-24T06:32:49;97426.62;;;25.60;42.66
43480;BME280;29067;35.492;-97.520;2023-07-24T06:35:19;97430.23;;;25.09;43.25
43480;BME280;29067;35.492;-97.520;2023-07-24T06:37:46;97427.85;;;25.63;42.75
43480;BME280;29067;35.492;-97.520;2023-07-24T06:40:15;97428.33;;;25.96;42.24
43480;BME280;29067;35.492;-97.520;2023-07-24T06:42:44;97429.19;;;25.31;43.17
43480;BME280;29067;35.492;-97.520;2023-07-24T06:45:12;97425.74;;;25.07;43.00
43480;BME280;29067;35.492;-97.520;2023-07-24T06:47:40;97421.72;;;26.07;42.63
43480;BME280;29067;35.492;-97.520;2023-07-24T06:50:09;97423.42;;;25.48;43.27
43480;BME280;29067;35.492;-97.520;2023-07-24T06:52:36;97424.95;;;25.38;43.35
43480;BME280;29067;35.492;-97.520;2023-07-24T06:55:05;97425.54;;;25.50;44.03
43480;BME280;29067;35.492;-97.520;2023-07-24T06:57:34;97419.09;;;26.19;42.75
43480;BME280;29067;35.492;-97.520;2023-07-24T07:00:02;97422.74;;;26.00;43.11
43480;BME280;29067;35.492;-97.520;2023-07-24T07:02:30;97423.69;;;25.62;44.23
43480;BME280;29067;35.492;-97.520;2023-07-24T07:05:05;97420.94;;;24.86;45.06
43480;BME280;29067;35.492;-97.520;2023-07-24T07:07:34;97414.49;;;26.83;43.06
43480;BME280;29067;35.492;-97.520;2023-07-24T07:10:02;97414.54;;;25.33;44.78
43480;BME280;29067;35.492;-97.520;2023-07-24T07:12:30;97413.83;;;25.86;43.71
43480;BME280;29067;35.492;-97.520;2023-07-24T07:14:58;97420.15;;;25.48;44.79
43480;BME280;29067;35.492;-97.520;2023-07-24T07:17:26;97416.65;;;25.21;44.54
43480;BME280;29067;35.492;-97.520;2023-07-24T07:19:54;97413.57;;;24.93;45.51
43480;BME280;29067;35.492;-97.520;2023-07-24T07:22:27;97411.33;;;26.09;44.26
43480;BME280;29067;35.492;-97.520;2023-07-24T07:24:55;97410.54;;;26.23;43.73
43480;BME280;29067;35.492;-97.520;2023-07-24T07:27:28;97415.32;;;24.76;45.86
43480;BME280;29067;35.492;-97.520;2023-07-24T07:29:57;97412.65;;;25.97;44.61
43480;BME280;29067;35.492;-97.520;2023-07-24T07:32:26;97415.73;;;24.32;45.94
43480;BME280;29067;35.492;-97.520;2023-07-24T07:34:54;97411.97;;;24.92;46.04
43480;BME280;29067;35.492;-97.520;2023-07-24T07:37:22;97412.56;;;24.57;46.43
43480;BME280;29067;35.492;-97.520;2023-07-24T07:39:51;97412.77;;;24.57;46.82
43480;BME280;29067;35.492;-97.520;2023-07-24T07:42:18;97413.61;;;24.73;46.42
43480;BME280;29067;35.492;-97.520;2023-07-24T07:44:47;97415.67;;;23.56;47.94
43480;BME280;29067;35.492;-97.520;2023-07-24T07:47:15;97403.36;;;24.61;46.74
43480;BME280;29067;35.492;-97.520;2023-07-24T07:49:43;97405.60;;;25.17;46.00
43480;BME280;29067;35.492;-97.520;2023-07-24T07:52:11;97402.55;;;24.95;47.33
43480;BME280;29067;35.492;-97.520;2023-07-24T07:54:39;97401.74;;;25.00;46.60
43480;BME280;29067;35.492;-97.520;2023-07-24T07:57:08;97402.58;;;24.39;47.00
43480;BME280;29067;35.492;-97.520;2023-07-24T07:59:36;97403.33;;;24.38;47.07
43480;BME280;29067;35.492;-97.520;2023-07-24T08:02:04;97402.86;;;24.11;47.61
43480;BME280;29067;35.492;-97.520;2023-07-24T08:04:32;97408.88;;;25.20;46.35
43480;BME280;29067;35.492;-97.520;2023-07-24T08:07:00;97404.04;;;24.32;47.14
43480;BME280;29067;35.492;-97.520;2023-07-24T08:09:29;97402.27;;;23.94;47.84
43480;BME280;29067;35.492;-97.520;2023-07-24T08:11:57;97405.44;;;23.44;48.51
43480;BME280;29067;35.492;-97.520;2023-07-24T08:14:26;97397.46;;;25.03;46.59
43480;BME280;29067;35.492;-97.520;2023-07-24T08:16:54;97395.34;;;24.93;47.14
43480;BME280;29067;35.492;-97.520;2023-07-24T08:19:22;97391.58;;;24.89;46.64
43480;BME280;29067;35.492;-97.520;2023-07-24T08:21:50;97393.62;;;24.41;47.85
43480;BME280;29067;35.492;-97.520;2023-07-24T08:24:18;97393.97;;;25.28;46.49
43480;BME280;29067;35.492;-97.520;2023-07-24T08:26:47;97388.01;;;24.18;47.56
43480;BME280;29067;35.492;-97.520;2023-07-24T08:29:16;97386.04;;;24.75;47.60
43480;BME280;29067;35.492;-97.520;2023-07-24T08:31:44;97393.68;;;22.67;49.68
43480;BME280;29067;35.492;-97.520;2023-07-24T08:34:13;97388.21;;;23.33;48.82
43480;BME280;29067;35.492;-97.520;2023-07-24T08:36:43;97387.53;;;25.02;47.68
43480;BME280;29067;35.492;-97.520;2023-07-24T08:39:10;97386.71;;;24.57;48.39
43480;BME280;29067;35.492;-97.520;2023-07-24T08:41:39;97393.60;;;23.86;49.71
43480;BME280;29067;35.492;-97.520;2023-07-24T08:44:08;97385.42;;;24.31;48.57
43480;BME280;29067;35.492;-97.520;2023-07-24T08:46:37;97375.88;;;24.49;47.42
43480;BME280;29067;35.492;-97.520;2023-07-24T08:49:06;97376.58;;;24.53;48.31
43480;BME280;29067;35.492;-97.520;2023-07-24T08:51:40;97374.90;;;25.78;47.02
43480;BME280;29067;35.492;-97.520;2023-07-24T08:54:09;97374.19;;;24.61;48.34
43480;BME280;29067;35.492;-97.520;2023-07-24T08:56:37;97375.57;;;23.88;47.96
43480;BME280;29067;35.492;-97.520;2023-07-24T08:59:05;97373.58;;;24.21;48.26
43480;BME280;29067;35.492;-97.520;2023-07-24T09:01:34;97371.59;;;25.71;46.96
43480;BME280;29067;35.492;-97.520;2023-07-24T09:04:02;97369.63;;;24.45;47.88
43480;BME280;29067;35.492;-97.520;2023-07-24T09:06:31;97373.94;;;24.08;48.70
43480;BME280;29067;35.492;-97.520;2023-07-24T09:08:59;97375.34;;;23.93;48.07
43480;BME280;29067;35.492;-97.520;2023-07-24T09:11:27;97381.64;;;24.97;47.35
43480;BME280;29067;35.492;-97.520;2023-07-24T09:13:55;97393.47;;;23.46;48.58
43480;BME280;29067;35.492;-97.520;2023-07-24T09:16:24;97393.85;;;23.60;48.47
43480;BME280;29067;35.492;-97.520;2023-07-24T09:18:53;97398.19;;;24.81;47.97
43480;BME280;29067;35.492;-97.520;2023-07-24T09:21:30;97396.46;;;25.40;47.38
43480;BME280;29067;35.492;-97.520;2023-07-24T09:24:08;97397.94;;;24.41;47.48
43480;BME280;29067;35.492;-97.520;2023-07-24T09:26:46;97404.93;;;23.26;49.03
43480;BME280;29067;35.492;-97.520;2023-07-24T09:29:14;97401.75;;;24.42;48.21
43480;BME280;29067;35.492;-97.520;2023-07-24T09:31:43;97407.14;;;25.25;46.56
43480;BME280;29067;35.492;-97.520;2023-07-24T09:34:16;97412.06;;;24.34;47.67
43480;BME280;29067;35.492;-97.520;2023-07-24T09:36:44;97417.54;;;23.75;49.10
43480;BME280;29067;35.492;-97.520;2023-07-24T09:39:12;97421.40;;;24.22;49.00
43480;BME280;29067;35.492;-97.520;2023-07-24T09:41:41;97419.51;;;24.31;47.91
43480;BME280;29067;35.492;-97.520;2023-07-24T09:44:11;97422.55;;;23.97;48.20
43480;BME280;29067;35.492;-97.520;2023-07-24T09:46:39;97430.41;;;24.56;49.03
43480;BME280;29067;35.492;-97.520;2023-07-24T09:49:08;97430.63;;;24.78;48.11
43480;BME280;29067;35.492;-97.520;2023-07-24T09:51:36;97430.78;;;24.69;47.80
43480;BME280;29067;35.492;-97.520;2023-07-24T09:54:10;97431.38;;;24.93;47.20
43480;BME280;29067;35.492;-97.520;2023-07-24T09:56:42;97432.37;;;24.80;47.44
43480;BME280;29067;35.492;-97.520;2023-07-24T09:59:11;97433.72;;;24.24;48.64
43480;BME280;29067;35.492;-97.520;2023-07-24T10:01:40;97433.92;;;25.53;47.58
43480;BME280;29067;35.492;-97.520;2023-07-24T10:04:09;97442.69;;;23.71;48.67
43480;BME280;29067;35.492;-97.520;2023-07-24T10:06:37;97444.51;;;24.52;49.06
43480;BME280;29067;35.492;-97.520;2023-07-24T10:09:06;97443.11;;;24.61;48.46
43480;BME280;29067;35.492;-97.520;2023-07-24T10:11:35;97443.64;;;24.19;48.98
43480;BME280;29067;35.492;-97.520;2023-07-24T10:14:04;97445.35;;;24.19;49.52
43480;BME280;29067;35.492;-97.520;2023-07-24T10:16:33;97438.35;;;24.50;48.51
43480;BME280;29067;35.492;-97.520;2023-07-24T10:19:00;97430.64;;;23.83;49.38
43480;BME280;29067;35.492;-97.520;2023-07-24T10:21:29;97419.87;;;24.03;49.49
43480;BME280;29067;35.492;-97.520;2023-07-24T10:24:00;97419.37;;;23.66;50.07
43480;BME280;29067;35.492;-97.520;2023-07-24T10:26:28;97418.11;;;25.04;48.14
43480;BME280;29067;35.492;-97.520;2023-07-24T10:28:57;97419.25;;;24.26;48.94
43480;BME280;29067;35.492;-97.520;2023-07-24T10:31:26;97419.96;;;24.31;48.77
43480;BME280;29067;35.492;-97.520;2023-07-24T10:33:55;97422.08;;;24.60;49.00
43480;BME280;29067;35.492;-97.520;2023-07-24T10:36:23;97421.02;;;25.18;48.00
43480;BME280;29067;35.492;-97.520;2023-07-24T10:38:54;97425.08;;;23.42;50.61
43480;BME280;29067;35.492;-97.520;2023-07-24T10:41:22;97416.41;;;24.81;48.65
43480;BME280;29067;35.492;-97.520;2023-07-24T10:43:51;97417.09;;;24.42;48.72
43480;BME280;29067;35.492;-97.520;2023-07-24T10:46:21;97425.41;;;23.23;50.02
43480;BME280;29067;35.492;-97.520;2023-07-24T10:48:50;97429.62;;;23.41;50.71
43480;BME280;29067;35.492;-97.520;2023-07-24T10:51:19;97431.16;;;23.35;50.02
43480;BME280;29067;35.492;-97.520;2023-07-24T10:53:49;97427.88;;;23.79;49.04
43480;BME280;29067;35.492;-97.520;2023-07-24T10:56:17;97432.89;;;23.81;49.61
43480;BME280;29067;35.492;-97.520;2023-07-24T10:58:45;97432.94;;;24.70;48.77
43480;BME280;29067;35.492;-97.520;2023-07-24T11:03:00;97437.23;;;23.19;50.91
43480;BME280;29067;35.492;-97.520;2023-07-24T11:05:29;97442.18;;;24.01;49.31
43480;BME280;29067;35.492;-97.520;2023-07-24T11:07:57;97450.43;;;23.63;49.77
43480;BME280;29067;35.492;-97.520;2023-07-24T11:10:25;97450.88;;;23.98;49.72
43480;BME280;29067;35.492;-97.520;2023-07-24T11:13:09;97441.36;;;23.84;48.95
43480;BME280;29067;35.492;-97.520;2023-07-24T11:15:37;97450.72;;;23.75;50.04
43480;BME280;29067;35.492;-97.520;2023-07-24T11:18:05;97448.51;;;24.65;49.39
43480;BME280;29067;35.492;-97.520;2023-07-24T11:20:35;97438.78;;;24.35;49.26
43480;BME280;29067;35.492;-97.520;2023-07-24T11:23:04;97441.08;;;24.04;48.66
43480;BME280;29067;35.492;-97.520;2023-07-24T11:25:33;97443.19;;;24.64;49.06
43480;BME280;29067;35.492;-97.520;2023-07-24T11:28:01;97450.15;;;23.27;49.68
43480;BME280;29067;35.492;-97.520;2023-07-24T11:30:29;97448.69;;;24.35;49.35
43480;BME280;29067;35.492;-97.520;2023-07-24T11:32:58;97445.95;;;24.35;49.46
43480;BME280;29067;35.492;-97.520;2023-07-24T11:35:26;97447.20;;;24.09;49.81
43480;BME280;29067;35.492;-97.520;2023-07-24T11:37:55;97440.23;;;24.39;48.92
43480;BME280;29067;35.492;-97.520;2023-07-24T11:40:31;97447.25;;;23.91;50.07
43480;BME280;29067;35.492;-97.520;2023-07-24T11:43:00;97448.41;;;23.01;51.44
43480;BME280;29067;35.492;-97.520;2023-07-24T11:45:28;97458.48;;;22.26;52.38
43480;BME280;29067;35.492;-97.520;2023-07-24T11:47:56;97457.85;;;23.72;50.48
43480;BME280;29067;35.492;-97.520;2023-07-24T11:50:25;97461.62;;;23.09;51.41
43480;BME280;29067;35.492;-97.520;2023-07-24T11:52:53;97460.77;;;23.83;50.54
43480;BME280;29067;35.492;-97.520;2023-07-24T11:55:31;97457.40;;;24.14;49.58
43480;BME280;29067;35.492;-97.520;2023-07-24T11:58:00;97468.00;;;22.94;51.73
43480;BME280;29067;35.492;-97.520;2023-07-24T12:00:31;97465.17;;;23.40;51.05
43480;BME280;29067;35.492;-97.520;2023-07-24T12:03:00;97461.65;;;23.54;51.34
43480;BME280;29067;35.492;-97.520;2023-07-24T12:05:28;97464.08;;;22.43;52.48
43480;BME280;29067;35.492;-97.520;2023-07-24T12:07:56;97462.92;;;21.80;53.18
43480;BME280;29067;35.492;-97.520;2023-07-24T12:10:27;97467.07;;;22.69;52.03
43480;BME280;29067;35.492;-97.520;2023-07-24T12:12:58;97463.92;;;24.27;51.16
43480;BME280;29067;35.492;-97.520;2023-07-24T12:15:27;97466.49;;;22.94;52.30
43480;BME280;29067;35.492;-97.520;2023-07-24T12:17:55;97463.65;;;24.08;50.83
43480;BME280;29067;35.492;-97.520;2023-07-24T12:20:23;97464.97;;;23.45;51.20
43480;BME280;29067;35.492;-97.520;2023-07-24T12:22:51;97461.51;;;23.73;50.76
43480;BME280;29067;35.492;-97.520;2023-07-24T12:25:19;97463.69;;;22.91;52.16
43480;BME280;29067;35.492;-97.520;2023-07-24T12:27:47;97469.15;;;23.40;51.63
43480;BME280;29067;35.492;-97.520;2023-07-24T12:30:15;97469.55;;;20.92;55.39
43480;BME280;29067;35.492;-97.520;2023-07-24T12:32:44;97476.03;;;23.62;52.19
43480;BME280;29067;35.492;-97.520;2023-07-24T12:35:12;97476.57;;;23.25;51.82
43480;BME280;29067;35.492;-97.520;2023-07-24T12:37:41;97478.34;;;22.62;53.00
43480;BME280;29067;35.492;-97.520;2023-07-24T12:40:09;97479.27;;;22.65;52.91
43480;BME280;29067;35.492;-97.520;2023-07-24T12:42:37;97478.83;;;22.68;52.82
43480;BME280;29067;35.492;-97.520;2023-07-24T12:45:07;97483.34;;;23.21;52.23
43480;BME280;29067;35.492;-97.520;2023-07-24T12:47:35;97483.05;;;23.12;51.77
43480;BME280;29067;35.492;-97.520;2023-07-24T12:50:03;97484.75;;;22.64;52.63